sensor_id;sensor_type;location;lat;lon;timestamp;temperature;humidity
82901;DHT22;72673;50.822;3.280;2024-01-30T00:00:09;11.10;90.00
82901;DHT22;72673;50.822;3.280;2024-01-30T00:02:35;11.20;89.70
82901;DHT22;72673;50.822;3.280;2024-01-30T00:05:00;11.30;89.00
82901;DHT22;72673;50.822;3.280;2024-01-30T00:07:26;11.30;89.30
82901;DHT22;72673;50.822;3.280;2024-01-30T00:09:52;11.20;89.60
82901;DHT22;72673;50.822;3.280;2024-01-30T00:12:17;11.10;90.00
82901;DHT22;72673;50.822;3.280;2024-01-30T00:14:43;11.30;89.30
82901;DHT22;72673;50.822;3.280;2024-01-30T00:17:09;11.20;89.40
82901;DHT22;72673;50.822;3.280;2024-01-30T00:19:35;11.30;89.30
82901;DHT22;72673;50.822;3.280;2024-01-30T00:22:00;11.30;89.30
82901;DHT22;72673;50.822;3.280;2024-01-30T00:24:26;11.20;89.70
82901;DHT22;72673;50.822;3.280;2024-01-30T00:26:52;11.00;90.20
82901;DHT22;72673;50.822;3.280;2024-01-30T00:29:17;11.00;90.50
82901;DHT22;72673;50.822;3.280;2024-01-30T00:31:45;11.00;90.30
82901;DHT22;72673;50.822;3.280;2024-01-30T00:34:11;11.00;90.60
82901;DHT22;72673;50.822;3.280;2024-01-30T00:36:37;11.10;90.70
82901;DHT22;72673;50.822;3.280;2024-01-30T00:39:03;11.10;90.00
82901;DHT22;72673;50.822;3.280;2024-01-30T00:41:32;11.20;90.00
82901;DHT22;72673;50.822;3.280;2024-01-30T00:43:57;11.20;90.00
82901;DHT22;72673;50.822;3.280;2024-01-30T00:46:23;11.20;90.00
82901;DHT22;72673;50.822;3.280;2024-01-30T00:48:48;11.30;89.40
82901;DHT22;72673;50.822;3.280;2024-01-30T00:51:14;11.10;89.90
82901;DHT22;72673;50.822;3.280;2024-01-30T00:53:40;11.20;90.00
82901;DHT22;72673;50.822;3.280;2024-01-30T00:56:07;11.10;90.10
82901;DHT22;72673;50.822;3.280;2024-01-30T00:58:33;11.10;90.20
82901;DHT22;72673;50.822;3.280;2024-01-30T01:00:59;11.10;90.30
82901;DHT22;72673;50.822;3.280;2024-01-30T01:03:24;11.10;90.10
82901;DHT22;72673;50.822;3.280;2024-01-30T01:05:50;11.10;90.10
82901;DHT22;72673;50.822;3.280;2024-01-30T01:08:16;11.10;90.50
82901;DHT22;72673;50.822;3.280;2024-01-30T01:10:41;11.10;90.10
82901;DHT22;72673;50.822;3.280;2024-01-30T01:13:07;11.00;90.30
82901;DHT22;72673;50.822;3.280;2024-01-30T01:15:33;11.10;90.20
82901;DHT22;72673;50.822;3.280;2024-01-30T01:17:58;11.00;90.50
82901;DHT22;72673;50.822;3.280;2024-01-30T01:20:24;11.00;90.50
82901;DHT22;72673;50.822;3.280;2024-01-30T01:22:49;10.90;90.70
82901;DHT22;72673;50.822;3.280;2024-01-30T01:25:15;11.00;90.70
82901;DHT22;72673;50.822;3.280;2024-01-30T01:27:41;10.80;90.90
82901;DHT22;72673;50.822;3.280;2024-01-30T01:30:09;10.80;91.10
82901;DHT22;72673;50.822;3.280;2024-01-30T01:32:36;11.00;90.80
82901;DHT22;72673;50.822;3.280;2024-01-30T01:35:02;10.90;90.90
82901;DHT22;72673;50.822;3.280;2024-01-30T01:37:28;10.80;91.20
82901;DHT22;72673;50.822;3.280;2024-01-30T01:39:53;10.90;91.20
82901;DHT22;72673;50.822;3.280;2024-01-30T01:42:19;10.80;91.30
82901;DHT22;72673;50.822;3.280;2024-01-30T01:44:45;10.90;91.00
82901;DHT22;72673;50.822;3.280;2024-01-30T01:47:10;11.10;91.10
82901;DHT22;72673;50.822;3.280;2024-01-30T01:49:36;11.00;90.90
82901;DHT22;72673;50.822;3.280;2024-01-30T01:52:02;11.20;90.40
82901;DHT22;72673;50.822;3.280;2024-01-30T01:54:29;11.30;90.10
82901;DHT22;72673;50.822;3.280;2024-01-30T01:56:54;11.20;90.20
82901;DHT22;72673;50.822;3.280;2024-01-30T01:59:21;11.20;90.30
82901;DHT22;72673;50.822;3.280;2024-01-30T02:01:47;11.10;90.40
82901;DHT22;72673;50.822;3.280;2024-01-30T02:04:16;10.90;91.00
82901;DHT22;72673;50.822;3.280;2024-01-30T02:06:43;11.10;90.60
82901;DHT22;72673;50.822;3.280;2024-01-30T02:09:09;11.20;90.20
82901;DHT22;72673;50.822;3.280;2024-01-30T02:11:35;11.20;90.10
82901;DHT22;72673;50.822;3.280;2024-01-30T02:14:04;11.10;90.40
82901;DHT22;72673;50.822;3.280;2024-01-30T02:16:30;11.00;90.60
82901;DHT22;72673;50.822;3.280;2024-01-30T02:18:56;11.10;90.50
82901;DHT22;72673;50.822;3.280;2024-01-30T02:21:22;11.00;90.70
82901;DHT22;72673;50.822;3.280;2024-01-30T02:23:48;10.90;91.20
82901;DHT22;72673;50.822;3.280;2024-01-30T02:26:15;10.90;91.20
82901;DHT22;72673;50.822;3.280;2024-01-30T02:28:40;11.00;91.20
82901;DHT22;72673;50.822;3.280;2024-01-30T02:31:06;11.00;91.30
82901;DHT22;72673;50.822;3.280;2024-01-30T02:33:31;11.10;91.10
82901;DHT22;72673;50.822;3.280;2024-01-30T02:35:57;11.20;90.90
82901;DHT22;72673;50.822;3.280;2024-01-30T02:38:23;11.20;90.90
82901;DHT22;72673;50.822;3.280;2024-01-30T02:40:49;11.20;91.00
82901;DHT22;72673;50.822;3.280;2024-01-30T02:43:16;11.30;90.70
82901;DHT22;72673;50.822;3.280;2024-01-30T02:45:42;11.30;90.50
82901;DHT22;72673;50.822;3.280;2024-01-30T02:48:08;11.50;90.10
82901;DHT22;72673;50.822;3.280;2024-01-30T02:50:33;11.60;89.90
82901;DHT22;72673;50.822;3.280;2024-01-30T02:52:59;11.40;90.30
82901;DHT22;72673;50.822;3.280;2024-01-30T02:55:25;11.20;90.90
82901;DHT22;72673;50.822;3.280;2024-01-30T02:57:50;11.20;91.00
82901;DHT22;72673;50.822;3.280;2024-01-30T03:00:16;11.20;91.40
82901;DHT22;72673;50.822;3.280;2024-01-30T03:02:41;11.10;91.20
82901;DHT22;72673;50.822;3.280;2024-01-30T03:05:07;11.20;91.30
82901;DHT22;72673;50.822;3.280;2024-01-30T03:07:33;11.20;91.10
82901;DHT22;72673;50.822;3.280;2024-01-30T03:09:59;11.20;91.10
82901;DHT22;72673;50.822;3.280;2024-01-30T03:12:25;11.30;90.90
82901;DHT22;72673;50.822;3.280;2024-01-30T03:14:50;11.40;90.70
82901;DHT22;72673;50.822;3.280;2024-01-30T03:17:17;11.40;90.90
82901;DHT22;72673;50.822;3.280;2024-01-30T03:19:42;11.40;90.50
82901;DHT22;72673;50.822;3.280;2024-01-30T03:22:08;11.50;90.30
82901;DHT22;72673;50.822;3.280;2024-01-30T03:24:34;11.50;90.30
82901;DHT22;72673;50.822;3.280;2024-01-30T03:26:59;11.50;90.40
82901;DHT22;72673;50.822;3.280;2024-01-30T03:29:26;11.40;90.60
82901;DHT22;72673;50.822;3.280;2024-01-30T03:31:52;11.40;90.60
82901;DHT22;72673;50.822;3.280;2024-01-30T03:34:17;11.30;90.70
82901;DHT22;72673;50.822;3.280;2024-01-30T03:36:43;11.30;90.70
82901;DHT22;72673;50.822;3.280;2024-01-30T03:39:09;11.40;90.60
82901;DHT22;72673;50.822;3.280;2024-01-30T03:41:34;11.30;90.60
82901;DHT22;72673;50.822;3.280;2024-01-30T03:44:00;11.40;90.60
82901;DHT22;72673;50.822;3.280;2024-01-30T03:46:26;11.40;90.30
82901;DHT22;72673;50.822;3.280;2024-01-30T03:48:51;11.30;90.40
82901;DHT22;72673;50.822;3.280;2024-01-30T03:51:17;11.20;90.60
82901;DHT22;72673;50.822;3.280;2024-01-30T03:53:43;11.20;90.80
82901;DHT22;72673;50.822;3.280;2024-01-30T03:56:09;11.30;90.70
82901;DHT22;72673;50.822;3.280;2024-01-30T03:58:35;11.30;90.50
82901;DHT22;72673;50.822;3.280;2024-01-30T04:01:01;11.20;90.60
82901;DHT22;72673;50.822;3.280;2024-01-30T04:03:27;11.40;90.40
82901;DHT22;72673;50.822;3.280;2024-01-30T04:05:53;11.20;90.60
82901;DHT22;72673;50.822;3.280;2024-01-30T04:08:19;11.20;90.80
82901;DHT22;72673;50.822;3.280;2024-01-30T04:10:44;11.20;90.70
82901;DHT22;72673;50.822;3.280;2024-01-30T04:13:10;11.20;90.80
82901;DHT22;72673;50.822;3.280;2024-01-30T04:15:36;11.20;90.70
82901;DHT22;72673;50.822;3.280;2024-01-30T04:18:02;11.10;90.90
82901;DHT22;72673;50.822;3.280;2024-01-30T04:20:27;11.10;90.90
82901;DHT22;72673;50.822;3.280;2024-01-30T04:22:53;11.10;90.90
82901;DHT22;72673;50.822;3.280;2024-01-30T04:25:19;11.00;91.10
82901;DHT22;72673;50.822;3.280;2024-01-30T04:27:45;11.00;91.20
82901;DHT22;72673;50.822;3.280;2024-01-30T04:30:11;11.10;91.10
82901;DHT22;72673;50.822;3.280;2024-01-30T04:32:37;11.10;91.00
82901;DHT22;72673;50.822;3.280;2024-01-30T04:35:03;11.10;91.10
82901;DHT22;72673;50.822;3.280;2024-01-30T04:37:29;11.10;91.40
82901;DHT22;72673;50.822;3.280;2024-01-30T04:39:54;11.00;91.20
82901;DHT22;72673;50.822;3.280;2024-01-30T04:42:20;10.90;91.30
82901;DHT22;72673;50.822;3.280;2024-01-30T04:44:46;10.90;91.60
82901;DHT22;72673;50.822;3.280;2024-01-30T04:47:12;10.80;91.90
82901;DHT22;72673;50.822;3.280;2024-01-30T04:49:41;10.70;92.00
82901;DHT22;72673;50.822;3.280;2024-01-30T04:52:07;10.60;92.30
82901;DHT22;72673;50.822;3.280;2024-01-30T04:54:34;10.70;92.10
82901;DHT22;72673;50.822;3.280;2024-01-30T04:57:01;10.90;91.70
82901;DHT22;72673;50.822;3.280;2024-01-30T04:59:26;10.80;91.90
82901;DHT22;72673;50.822;3.280;2024-01-30T05:01:52;10.80;92.00
82901;DHT22;72673;50.822;3.280;2024-01-30T05:04:18;10.80;92.00
82901;DHT22;72673;50.822;3.280;2024-01-30T05:06:44;10.80;91.90
82901;DHT22;72673;50.822;3.280;2024-01-30T05:09:10;10.80;91.80
82901;DHT22;72673;50.822;3.280;2024-01-30T05:11:37;10.80;91.80
82901;DHT22;72673;50.822;3.280;2024-01-30T05:14:04;10.80;91.70
82901;DHT22;72673;50.822;3.280;2024-01-30T05:16:30;10.90;91.80
82901;DHT22;72673;50.822;3.280;2024-01-30T05:18:55;10.90;91.60
82901;DHT22;72673;50.822;3.280;2024-01-30T05:21:21;10.80;91.70
82901;DHT22;72673;50.822;3.280;2024-01-30T05:23:46;10.80;91.90
82901;DHT22;72673;50.822;3.280;2024-01-30T05:26:12;10.90;91.80
82901;DHT22;72673;50.822;3.280;2024-01-30T05:28:38;10.90;91.50
82901;DHT22;72673;50.822;3.280;2024-01-30T05:31:03;11.10;91.20
82901;DHT22;72673;50.822;3.280;2024-01-30T05:33:29;11.00;91.30
82901;DHT22;72673;50.822;3.280;2024-01-30T05:35:55;11.10;91.20
82901;DHT22;72673;50.822;3.280;2024-01-30T05:38:20;11.10;91.40
82901;DHT22;72673;50.822;3.280;2024-01-30T05:40:46;11.10;91.20
82901;DHT22;72673;50.822;3.280;2024-01-30T05:43:12;11.20;91.10
82901;DHT22;72673;50.822;3.280;2024-01-30T05:45:38;11.20;90.90
82901;DHT22;72673;50.822;3.280;2024-01-30T05:48:04;11.20;91.40
82901;DHT22;72673;50.822;3.280;2024-01-30T05:50:30;11.20;90.90
82901;DHT22;72673;50.822;3.280;2024-01-30T05:52:55;11.20;90.80
82901;DHT22;72673;50.822;3.280;2024-01-30T05:55:21;11.20;90.80
82901;DHT22;72673;50.822;3.280;2024-01-30T05:57:47;11.10;91.10
82901;DHT22;72673;50.822;3.280;2024-01-30T06:00:13;11.10;91.20
82901;DHT22;72673;50.822;3.280;2024-01-30T06:02:39;11.10;91.20
82901;DHT22;72673;50.822;3.280;2024-01-30T06:05:05;11.00;91.50
82901;DHT22;72673;50.822;3.280;2024-01-30T06:07:31;11.00;91.60
82901;DHT22;72673;50.822;3.280;2024-01-30T06:09:57;11.10;91.50
82901;DHT22;72673;50.822;3.280;2024-01-30T06:12:23;11.10;91.30
82901;DHT22;72673;50.822;3.280;2024-01-30T06:14:48;11.10;91.60
82901;DHT22;72673;50.822;3.280;2024-01-30T06:17:14;11.10;91.30
82901;DHT22;72673;50.822;3.280;2024-01-30T06:19:40;11.20;91.20
82901;DHT22;72673;50.822;3.280;2024-01-30T06:22:05;11.20;91.40
82901;DHT22;72673;50.822;3.280;2024-01-30T06:24:31;11.10;91.40
82901;DHT22;72673;50.822;3.280;2024-01-30T06:26:57;11.00;91.60
82901;DHT22;72673;50.822;3.280;2024-01-30T06:29:22;11.10;91.60
82901;DHT22;72673;50.822;3.280;2024-01-30T06:31:50;11.10;91.50
82901;DHT22;72673;50.822;3.280;2024-01-30T06:34:16;11.30;91.20
82901;DHT22;72673;50.822;3.280;2024-01-30T06:36:41;11.30;91.00
82901;DHT22;72673;50.822;3.280;2024-01-30T06:39:07;11.20;92.00
82901;DHT22;72673;50.822;3.280;2024-01-30T06:41:33;11.20;91.50
82901;DHT22;72673;50.822;3.280;2024-01-30T06:43:59;11.20;91.60
82901;DHT22;72673;50.822;3.280;2024-01-30T06:46:24;11.30;91.40
82901;DHT22;72673;50.822;3.280;2024-01-30T06:48:50;11.30;91.20
82901;DHT22;72673;50.822;3.280;2024-01-30T06:51:16;11.30;91.40
82901;DHT22;72673;50.822;3.280;2024-01-30T06:53:41;11.30;91.50
82901;DHT22;72673;50.822;3.280;2024-01-30T06:56:08;11.40;91.30
82901;DHT22;72673;50.822;3.280;2024-01-30T06:58:33;11.40;91.30
82901;DHT22;72673;50.822;3.280;2024-01-30T07:00:59;11.40;91.60
82901;DHT22;72673;50.822;3.280;2024-01-30T07:03:25;11.40;91.50
82901;DHT22;72673;50.822;3.280;2024-01-30T07:05:50;11.60;91.10
82901;DHT22;72673;50.822;3.280;2024-01-30T07:08:17;11.50;91.10
82901;DHT22;72673;50.822;3.280;2024-01-30T07:10:43;11.60;91.50
82901;DHT22;72673;50.822;3.280;2024-01-30T07:13:10;11.60;91.00
82901;DHT22;72673;50.822;3.280;2024-01-30T07:15:36;11.50;91.10
82901;DHT22;72673;50.822;3.280;2024-01-30T07:18:05;11.60;90.90
82901;DHT22;72673;50.822;3.280;2024-01-30T07:20:31;11.60;91.10
82901;DHT22;72673;50.822;3.280;2024-01-30T07:23:00;11.70;91.00
82901;DHT22;72673;50.822;3.280;2024-01-30T07:25:26;11.60;91.10
82901;DHT22;72673;50.822;3.280;2024-01-30T07:27:55;11.50;91.50
82901;DHT22;72673;50.822;3.280;2024-01-30T07:30:21;11.50;91.60
82901;DHT22;72673;50.822;3.280;2024-01-30T07:32:48;11.50;91.70
82901;DHT22;72673;50.822;3.280;2024-01-30T07:35:14;11.50;91.80
82901;DHT22;72673;50.822;3.280;2024-01-30T07:37:40;11.30;92.30
82901;DHT22;72673;50.822;3.280;2024-01-30T07:40:06;11.30;92.60
82901;DHT22;72673;50.822;3.280;2024-01-30T07:42:33;11.30;92.90
82901;DHT22;72673;50.822;3.280;2024-01-30T07:45:00;11.20;93.40
82901;DHT22;72673;50.822;3.280;2024-01-30T07:47:25;11.30;93.70
82901;DHT22;72673;50.822;3.280;2024-01-30T07:49:51;11.30;93.70
82901;DHT22;72673;50.822;3.280;2024-01-30T07:52:18;11.40;93.40
82901;DHT22;72673;50.822;3.280;2024-01-30T07:54:44;11.40;93.50
82901;DHT22;72673;50.822;3.280;2024-01-30T07:57:09;11.40;93.40
82901;DHT22;72673;50.822;3.280;2024-01-30T07:59:35;11.40;93.70
82901;DHT22;72673;50.822;3.280;2024-01-30T08:02:01;11.20;93.90
82901;DHT22;72673;50.822;3.280;2024-01-30T08:04:27;11.30;93.90
82901;DHT22;72673;50.822;3.280;2024-01-30T08:06:52;11.20;94.00
82901;DHT22;72673;50.822;3.280;2024-01-30T08:09:18;11.30;94.00
82901;DHT22;72673;50.822;3.280;2024-01-30T08:11:44;11.30;94.00
82901;DHT22;72673;50.822;3.280;2024-01-30T08:14:09;11.30;93.90
82901;DHT22;72673;50.822;3.280;2024-01-30T08:16:35;11.30;93.80
82901;DHT22;72673;50.822;3.280;2024-01-30T08:19:01;11.40;93.40
82901;DHT22;72673;50.822;3.280;2024-01-30T08:21:26;11.30;93.30
82901;DHT22;72673;50.822;3.280;2024-01-30T08:23:52;11.40;92.90
82901;DHT22;72673;50.822;3.280;2024-01-30T08:26:18;11.30;92.60
82901;DHT22;72673;50.822;3.280;2024-01-30T08:28:44;11.30;92.30
82901;DHT22;72673;50.822;3.280;2024-01-30T08:31:10;11.30;92.40
82901;DHT22;72673;50.822;3.280;2024-01-30T08:33:37;11.30;92.30
82901;DHT22;72673;50.822;3.280;2024-01-30T08:36:03;11.30;92.40
82901;DHT22;72673;50.822;3.280;2024-01-30T08:38:29;11.40;92.00
82901;DHT22;72673;50.822;3.280;2024-01-30T08:40:55;11.30;91.60
82901;DHT22;72673;50.822;3.280;2024-01-30T08:43:21;11.30;91.70
82901;DHT22;72673;50.822;3.280;2024-01-30T08:45:46;11.20;91.80
82901;DHT22;72673;50.822;3.280;2024-01-30T08:48:12;11.20;91.60
82901;DHT22;72673;50.822;3.280;2024-01-30T08:50:38;11.20;91.30
82901;DHT22;72673;50.822;3.280;2024-01-30T08:53:04;11.10;91.20
82901;DHT22;72673;50.822;3.280;2024-01-30T08:55:29;11.20;90.80
82901;DHT22;72673;50.822;3.280;2024-01-30T08:57:55;11.00;91.10
82901;DHT22;72673;50.822;3.280;2024-01-30T09:00:21;11.00;91.00
82901;DHT22;72673;50.822;3.280;2024-01-30T09:02:47;11.00;90.90
82901;DHT22;72673;50.822;3.280;2024-01-30T09:05:15;10.90;91.30
82901;DHT22;72673;50.822;3.280;2024-01-30T09:07:41;10.80;91.30
82901;DHT22;72673;50.822;3.280;2024-01-30T09:10:07;10.70;91.50
82901;DHT22;72673;50.822;3.280;2024-01-30T09:12:33;10.70;91.40
82901;DHT22;72673;50.822;3.280;2024-01-30T09:14:59;10.80;91.40
82901;DHT22;72673;50.822;3.280;2024-01-30T09:17:25;10.80;91.00
82901;DHT22;72673;50.822;3.280;2024-01-30T09:19:51;10.80;90.90
82901;DHT22;72673;50.822;3.280;2024-01-30T09:22:16;10.80;91.10
82901;DHT22;72673;50.822;3.280;2024-01-30T09:24:42;10.60;91.20
82901;DHT22;72673;50.822;3.280;2024-01-30T09:27:08;10.50;91.60
82901;DHT22;72673;50.822;3.280;2024-01-30T09:29:33;10.60;91.60
82901;DHT22;72673;50.822;3.280;2024-01-30T09:32:04;10.50;91.30
82901;DHT22;72673;50.822;3.280;2024-01-30T09:34:31;10.50;91.40
82901;DHT22;72673;50.822;3.280;2024-01-30T09:36:59;10.50;91.00
82901;DHT22;72673;50.822;3.280;2024-01-30T09:39:25;10.60;91.00
82901;DHT22;72673;50.822;3.280;2024-01-30T09:42:09;10.70;90.70
82901;DHT22;72673;50.822;3.280;2024-01-30T09:44:38;10.50;90.40
82901;DHT22;72673;50.822;3.280;2024-01-30T09:47:04;10.40;90.30
82901;DHT22;72673;50.822;3.280;2024-01-30T09:49:34;10.40;90.30
82901;DHT22;72673;50.822;3.280;2024-01-30T09:52:03;10.30;90.00
82901;DHT22;72673;50.822;3.280;2024-01-30T09:54:32;10.40;89.80
82901;DHT22;72673;50.822;3.280;2024-01-30T09:56:58;10.30;90.00
82901;DHT22;72673;50.822;3.280;2024-01-30T09:59:26;10.40;90.00
82901;DHT22;72673;50.822;3.280;2024-01-30T10:01:52;10.40;89.50
82901;DHT22;72673;50.822;3.280;2024-01-30T10:04:18;10.40;89.90
82901;DHT22;72673;50.822;3.280;2024-01-30T10:06:44;10.40;89.30
82901;DHT22;72673;50.822;3.280;2024-01-30T10:09:10;10.60;88.70
82901;DHT22;72673;50.822;3.280;2024-01-30T10:11:36;10.80;87.50
82901;DHT22;72673;50.822;3.280;2024-01-30T10:14:02;10.80;87.00
82901;DHT22;72673;50.822;3.280;2024-01-30T10:16:28;11.00;86.80
82901;DHT22;72673;50.822;3.280;2024-01-30T10:18:54;11.00;86.40
82901;DHT22;72673;50.822;3.280;2024-01-30T10:21:21;11.10;86.30
82901;DHT22;72673;50.822;3.280;2024-01-30T10:23:46;11.20;86.20
82901;DHT22;72673;50.822;3.280;2024-01-30T10:26:12;11.40;85.20
82901;DHT22;72673;50.822;3.280;2024-01-30T10:28:38;11.40;85.00
82901;DHT22;72673;50.822;3.280;2024-01-30T10:31:04;11.50;84.10
82901;DHT22;72673;50.822;3.280;2024-01-30T10:33:33;11.70;82.90
82901;DHT22;72673;50.822;3.280;2024-01-30T10:36:03;11.70;81.60
82901;DHT22;72673;50.822;3.280;2024-01-30T10:38:30;11.60;81.70
82901;DHT22;72673;50.822;3.280;2024-01-30T10:41:00;11.30;82.70
82901;DHT22;72673;50.822;3.280;2024-01-30T10:43:36;11.10;84.40
82901;DHT22;72673;50.822;3.280;2024-01-30T10:46:26;11.10;84.70
82901;DHT22;72673;50.822;3.280;2024-01-30T10:48:56;11.00;84.70
82901;DHT22;72673;50.822;3.280;2024-01-30T10:51:24;11.00;85.00
82901;DHT22;72673;50.822;3.280;2024-01-30T10:53:51;11.00;85.00
82901;DHT22;72673;50.822;3.280;2024-01-30T10:56:20;11.10;84.40
82901;DHT22;72673;50.822;3.280;2024-01-30T10:58:46;11.10;84.40
82901;DHT22;72673;50.822;3.280;2024-01-30T11:01:12;11.20;84.10
82901;DHT22;72673;50.822;3.280;2024-01-30T11:03:38;11.20;83.70
82901;DHT22;72673;50.822;3.280;2024-01-30T11:06:04;11.10;83.80
82901;DHT22;72673;50.822;3.280;2024-01-30T11:08:32;11.20;83.70
82901;DHT22;72673;50.822;3.280;2024-01-30T11:10:58;11.10;84.10
82901;DHT22;72673;50.822;3.280;2024-01-30T11:13:31;11.10;84.40
82901;DHT22;72673;50.822;3.280;2024-01-30T11:16:03;11.40;83.40
82901;DHT22;72673;50.822;3.280;2024-01-30T11:18:31;11.40;83.30
82901;DHT22;72673;50.822;3.280;2024-01-30T11:21:01;11.40;82.20
82901;DHT22;72673;50.822;3.280;2024-01-30T11:23:30;11.30;79.30
82901;DHT22;72673;50.822;3.280;2024-01-30T11:25:57;11.00;80.30
82901;DHT22;72673;50.822;3.280;2024-01-30T11:28:23;11.30;77.40
82901;DHT22;72673;50.822;3.280;2024-01-30T11:30:49;11.00;78.20
82901;DHT22;72673;50.822;3.280;2024-01-30T11:33:30;10.90;79.10
82901;DHT22;72673;50.822;3.280;2024-01-30T11:35:57;10.80;79.50
82901;DHT22;72673;50.822;3.280;2024-01-30T11:38:26;10.80;79.90
82901;DHT22;72673;50.822;3.280;2024-01-30T11:40:54;10.70;80.40
82901;DHT22;72673;50.822;3.280;2024-01-30T11:43:20;10.70;80.60
82901;DHT22;72673;50.822;3.280;2024-01-30T11:45:46;10.60;81.20
82901;DHT22;72673;50.822;3.280;2024-01-30T11:48:12;10.60;81.50
82901;DHT22;72673;50.822;3.280;2024-01-30T11:50:39;10.50;81.70
82901;DHT22;72673;50.822;3.280;2024-01-30T11:53:05;10.60;81.90
82901;DHT22;72673;50.822;3.280;2024-01-30T11:55:32;10.50;82.10
82901;DHT22;72673;50.822;3.280;2024-01-30T11:57:58;10.50;82.30
82901;DHT22;72673;50.822;3.280;2024-01-30T12:00:24;10.40;82.90
82901;DHT22;72673;50.822;3.280;2024-01-30T12:02:54;10.50;82.70
82901;DHT22;72673;50.822;3.280;2024-01-30T12:05:26;10.50;83.00
82901;DHT22;72673;50.822;3.280;2024-01-30T12:07:53;10.50;83.30
82901;DHT22;72673;50.822;3.280;2024-01-30T12:10:19;10.50;83.80
82901;DHT22;72673;50.822;3.280;2024-01-30T12:12:51;10.40;83.70
82901;DHT22;72673;50.822;3.280;2024-01-30T12:15:19;10.40;83.70
82901;DHT22;72673;50.822;3.280;2024-01-30T12:17:47;10.50;83.70
82901;DHT22;72673;50.822;3.280;2024-01-30T12:20:14;10.60;83.10
82901;DHT22;72673;50.822;3.280;2024-01-30T12:22:42;10.60;83.10
82901;DHT22;72673;50.822;3.280;2024-01-30T12:25:12;10.50;83.10
82901;DHT22;72673;50.822;3.280;2024-01-30T12:27:39;10.40;82.90
82901;DHT22;72673;50.822;3.280;2024-01-30T12:30:08;10.40;83.20
82901;DHT22;72673;50.822;3.280;2024-01-30T12:32:38;10.40;83.00
82901;DHT22;72673;50.822;3.280;2024-01-30T12:35:06;10.40;83.00
82901;DHT22;72673;50.822;3.280;2024-01-30T12:37:32;10.30;84.60
82901;DHT22;72673;50.822;3.280;2024-01-30T12:39:58;10.20;84.70
82901;DHT22;72673;50.822;3.280;2024-01-30T12:42:27;10.30;84.60
82901;DHT22;72673;50.822;3.280;2024-01-30T12:44:53;10.20;85.00
82901;DHT22;72673;50.822;3.280;2024-01-30T12:47:21;10.20;85.30
82901;DHT22;72673;50.822;3.280;2024-01-30T12:49:47;10.30;85.20
82901;DHT22;72673;50.822;3.280;2024-01-30T12:52:14;10.30;84.70
82901;DHT22;72673;50.822;3.280;2024-01-30T12:54:40;10.40;83.80
82901;DHT22;72673;50.822;3.280;2024-01-30T12:57:05;10.80;80.80
82901;DHT22;72673;50.822;3.280;2024-01-30T12:59:31;10.80;79.20
82901;DHT22;72673;50.822;3.280;2024-01-30T13:01:58;10.60;79.40
82901;DHT22;72673;50.822;3.280;2024-01-30T13:04:24;10.50;80.90
82901;DHT22;72673;50.822;3.280;2024-01-30T13:06:50;10.40;80.50
82901;DHT22;72673;50.822;3.280;2024-01-30T13:09:15;10.50;80.70
82901;DHT22;72673;50.822;3.280;2024-01-30T13:11:41;10.40;81.00
82901;DHT22;72673;50.822;3.280;2024-01-30T13:14:06;10.40;81.40
82901;DHT22;72673;50.822;3.280;2024-01-30T13:16:32;10.30;82.00
82901;DHT22;72673;50.822;3.280;2024-01-30T13:18:58;10.20;82.80
82901;DHT22;72673;50.822;3.280;2024-01-30T13:21:23;10.20;83.10
82901;DHT22;72673;50.822;3.280;2024-01-30T13:23:49;10.10;83.30
82901;DHT22;72673;50.822;3.280;2024-01-30T13:26:18;10.10;82.90
82901;DHT22;72673;50.822;3.280;2024-01-30T13:28:44;10.20;82.80
82901;DHT22;72673;50.822;3.280;2024-01-30T13:31:10;10.20;82.50
82901;DHT22;72673;50.822;3.280;2024-01-30T13:33:35;10.20;82.40
82901;DHT22;72673;50.822;3.280;2024-01-30T13:36:01;10.20;81.40
82901;DHT22;72673;50.822;3.280;2024-01-30T13:38:27;10.20;81.40
82901;DHT22;72673;50.822;3.280;2024-01-30T13:40:52;10.20;81.50
82901;DHT22;72673;50.822;3.280;2024-01-30T13:43:18;10.20;81.40
82901;DHT22;72673;50.822;3.280;2024-01-30T13:45:43;10.30;81.20
82901;DHT22;72673;50.822;3.280;2024-01-30T13:48:09;10.30;80.60
82901;DHT22;72673;50.822;3.280;2024-01-30T13:50:35;10.10;80.70
82901;DHT22;72673;50.822;3.280;2024-01-30T13:53:02;10.10;81.40
82901;DHT22;72673;50.822;3.280;2024-01-30T13:55:28;10.20;81.40
82901;DHT22;72673;50.822;3.280;2024-01-30T13:57:53;10.20;81.10
82901;DHT22;72673;50.822;3.280;2024-01-30T14:00:20;10.20;81.00
82901;DHT22;72673;50.822;3.280;2024-01-30T14:02:47;10.20;80.70
82901;DHT22;72673;50.822;3.280;2024-01-30T14:05:13;10.20;80.80
82901;DHT22;72673;50.822;3.280;2024-01-30T14:07:39;10.30;80.60
82901;DHT22;72673;50.822;3.280;2024-01-30T14:10:06;10.20;80.50
82901;DHT22;72673;50.822;3.280;2024-01-30T14:12:32;10.20;80.30
82901;DHT22;72673;50.822;3.280;2024-01-30T14:14:58;10.20;80.40
82901;DHT22;72673;50.822;3.280;2024-01-30T14:17:23;10.20;81.10
82901;DHT22;72673;50.822;3.280;2024-01-30T14:19:49;10.20;81.20
82901;DHT22;72673;50.822;3.280;2024-01-30T14:22:14;10.20;81.00
82901;DHT22;72673;50.822;3.280;2024-01-30T14:24:40;10.20;81.40
82901;DHT22;72673;50.822;3.280;2024-01-30T14:27:06;10.10;82.10
82901;DHT22;72673;50.822;3.280;2024-01-30T14:29:33;10.00;82.60
82901;DHT22;72673;50.822;3.280;2024-01-30T14:31:58;10.00;82.90
82901;DHT22;72673;50.822;3.280;2024-01-30T14:34:24;9.90;83.40
82901;DHT22;72673;50.822;3.280;2024-01-30T14:36:49;9.90;83.50
82901;DHT22;72673;50.822;3.280;2024-01-30T14:39:15;10.00;83.50
82901;DHT22;72673;50.822;3.280;2024-01-30T14:41:41;9.90;83.70
82901;DHT22;72673;50.822;3.280;2024-01-30T14:44:06;9.90;84.40
82901;DHT22;72673;50.822;3.280;2024-01-30T14:46:33;9.80;84.80
82901;DHT22;72673;50.822;3.280;2024-01-30T14:48:59;9.80;85.20
82901;DHT22;72673;50.822;3.280;2024-01-30T14:51:24;9.90;85.10
82901;DHT22;72673;50.822;3.280;2024-01-30T14:53:50;9.90;85.30
82901;DHT22;72673;50.822;3.280;2024-01-30T14:56:15;9.90;85.70
82901;DHT22;72673;50.822;3.280;2024-01-30T14:58:41;9.90;86.50
82901;DHT22;72673;50.822;3.280;2024-01-30T15:01:08;9.90;87.40
82901;DHT22;72673;50.822;3.280;2024-01-30T15:03:34;9.80;88.00
82901;DHT22;72673;50.822;3.280;2024-01-30T15:06:01;9.80;88.00
82901;DHT22;72673;50.822;3.280;2024-01-30T15:08:26;9.80;87.80
82901;DHT22;72673;50.822;3.280;2024-01-30T15:10:52;9.80;88.20
82901;DHT22;72673;50.822;3.280;2024-01-30T15:13:19;9.70;87.90
82901;DHT22;72673;50.822;3.280;2024-01-30T15:15:44;9.70;87.40
82901;DHT22;72673;50.822;3.280;2024-01-30T15:18:10;9.60;87.50
82901;DHT22;72673;50.822;3.280;2024-01-30T15:20:36;9.60;87.70
82901;DHT22;72673;50.822;3.280;2024-01-30T15:23:02;9.50;87.90
82901;DHT22;72673;50.822;3.280;2024-01-30T15:25:28;9.60;88.10